createdAt,value
2019-04-10T00:01:37.644Z,86.98
2019-04-10T00:04:08.300Z,87.11
2019-04-10T00:06:39.504Z,87.17
2019-04-10T00:09:10.666Z,87.15
2019-04-10T00:11:43.189Z,87.07
2019-04-10T00:14:15.069Z,87.05
2019-04-10T00:16:47.498Z,87.06
2019-04-10T00:19:18.329Z,87.24
2019-04-10T00:21:49.416Z,87.30
2019-04-10T00:24:20.446Z,87.15
2019-04-10T00:26:52.271Z,87.03
2019-04-10T00:29:24.714Z,87.05
2019-04-10T00:31:56.400Z,87.08
2019-04-10T00:34:27.538Z,86.92
2019-04-10T00:36:59.635Z,87.14
2019-04-10T00:39:31.379Z,87.19
2019-04-10T00:42:03.004Z,87.15
2019-04-10T00:44:33.922Z,86.99
2019-04-10T00:47:04.705Z,86.87
2019-04-10T00:49:35.843Z,86.94
2019-04-10T00:52:06.475Z,87.27
2019-04-10T00:54:37.306Z,87.27
2019-04-10T00:57:08.153Z,87.37
2019-04-10T00:59:39.837Z,87.40
2019-04-10T01:02:10.745Z,87.21
2019-04-10T01:04:42.497Z,87.12
2019-04-10T01:07:13.028Z,87.07
2019-04-10T01:09:43.819Z,86.87
2019-04-10T01:12:14.545Z,86.60
2019-04-10T01:14:45.683Z,86.43
2019-04-10T01:17:16.405Z,85.98
2019-04-10T01:19:48.080Z,84.84
2019-04-10T01:22:19.078Z,84.67
2019-04-10T01:24:50.201Z,84.40
2019-04-10T01:27:21.213Z,84.01
2019-04-10T01:29:51.886Z,83.46
2019-04-10T01:32:23.721Z,83.62
2019-04-10T01:34:54.391Z,83.71
2019-04-10T01:37:26.940Z,83.76
2019-04-10T01:39:58.982Z,83.98
2019-04-10T01:42:30.395Z,84.13
2019-04-10T01:45:01.067Z,84.12
2019-04-10T01:47:33.597Z,84.45
2019-04-10T01:50:04.531Z,84.27
2019-04-10T01:52:35.474Z,84.23
2019-04-10T01:55:19.167Z,83.97
2019-04-10T01:57:39.429Z,84.29
2019-04-10T02:00:13.159Z,84.69
2019-04-10T02:02:47.771Z,84.51
2019-04-10T02:05:18.772Z,83.81
2019-04-10T02:08:01.156Z,84.17
2019-04-10T02:10:22.232Z,84.21
2019-04-10T02:12:53.232Z,83.96
2019-04-10T02:15:24.061Z,83.73
2019-04-10T02:17:55.155Z,83.59
2019-04-10T02:20:25.781Z,84.11
2019-04-10T02:22:56.580Z,84.54
2019-04-10T02:25:28.435Z,84.58
2019-04-10T02:27:59.538Z,84.46
2019-04-10T02:30:30.940Z,84.06
2019-04-10T02:33:04.322Z,83.97
2019-04-10T02:35:36.135Z,83.55
2019-04-10T02:38:27.368Z,83.51
2019-04-10T02:40:41.533Z,83.30
2019-04-10T02:43:13.920Z,83.27
2019-04-10T02:45:45.003Z,83.62
2019-04-10T02:48:17.112Z,83.68
2019-04-10T02:50:49.223Z,83.79
2019-04-10T02:53:21.733Z,83.91
2019-04-10T02:55:53.647Z,83.70
2019-04-10T02:58:24.811Z,84.20
2019-04-10T03:00:56.338Z,83.79
2019-04-10T03:03:27.654Z,83.66
2019-04-10T03:05:58.761Z,83.61
2019-04-10T03:08:46.813Z,83.72
2019-04-10T03:11:05.076Z,83.76
2019-04-10T03:13:35.864Z,83.23
2019-04-10T03:16:07.477Z,83.66
2019-04-10T03:18:39.093Z,83.36
2019-04-10T03:21:11.016Z,83.25
2019-04-10T03:23:42.646Z,83.43
2019-04-10T03:26:13.422Z,83.81
2019-04-10T03:28:45.182Z,83.95
2019-04-10T03:31:16.043Z,83.91
2019-04-10T03:33:58.759Z,83.39
2019-04-10T03:36:37.994Z,83.55
2019-04-10T03:39:10.698Z,83.45
2019-04-10T03:41:42.157Z,83.93
2019-04-10T03:44:14.542Z,83.63
2019-04-10T03:46:45.314Z,83.21
2019-04-10T03:49:16.204Z,83.64
2019-04-10T03:51:47.144Z,83.86
2019-04-10T03:54:18.704Z,83.49
2019-04-10T03:56:50.014Z,83.58
2019-04-10T03:59:20.875Z,83.25
2019-04-10T04:01:51.561Z,83.61
2019-04-10T04:04:22.291Z,83.65
2019-04-10T04:06:54.010Z,83.83
2019-04-10T04:09:24.776Z,83.23
2019-04-10T04:11:55.854Z,83.28
2019-04-10T04:14:26.594Z,82.94
2019-04-10T04:16:57.800Z,83.24
2019-04-10T04:19:28.752Z,82.99
2019-04-10T04:22:00.538Z,83.26
2019-04-10T04:24:31.604Z,83.35
2019-04-10T04:27:02.763Z,82.55
2019-04-10T04:29:34.505Z,82.95
2019-04-10T04:32:05.514Z,82.33
2019-04-10T04:34:37.342Z,81.66
2019-04-10T04:37:10.243Z,82.11
2019-04-10T04:39:40.898Z,82.42
2019-04-10T04:42:11.525Z,82.10
2019-04-10T04:44:43.395Z,82.24
2019-04-10T04:47:14.230Z,82.53
2019-04-10T04:49:45.114Z,82.47
2019-04-10T04:52:16.303Z,82.13
2019-04-10T04:54:47.722Z,82.14
2019-04-10T04:57:18.437Z,82.15
2019-04-10T04:59:49.126Z,82.09
2019-04-10T05:02:20.583Z,82.60
2019-04-10T05:04:51.520Z,82.50
2019-04-10T05:07:22.516Z,81.89
2019-04-10T05:09:53.461Z,82.28
2019-04-10T05:12:24.124Z,81.54
2019-04-10T05:14:55.779Z,83.76
2019-04-10T05:17:27.300Z,83.38
2019-04-10T05:19:58.696Z,82.44
2019-04-10T05:22:29.414Z,82.13
2019-04-10T05:25:00.668Z,81.92
2019-04-10T05:27:31.501Z,81.47
2019-04-10T05:30:02.398Z,81.77
2019-04-10T05:32:35.332Z,82.46
2019-04-10T05:35:08.494Z,82.12
2019-04-10T05:37:40.074Z,81.88
2019-04-10T05:40:11.837Z,81.95
2019-04-10T05:42:42.700Z,82.22
2019-04-10T05:45:14.840Z,82.36
2019-04-10T05:47:46.562Z,81.78
2019-04-10T05:50:17.501Z,81.72
2019-04-10T05:52:48.191Z,81.63
2019-04-10T05:55:19.095Z,81.47
2019-04-10T05:57:49.860Z,81.68
2019-04-10T06:00:22.901Z,81.15
2019-04-10T06:02:54.238Z,80.68
2019-04-10T06:05:24.997Z,80.60
2019-04-10T06:07:55.797Z,80.36
2019-04-10T06:10:26.773Z,80.69
2019-04-10T06:12:58.561Z,80.93
2019-04-10T06:15:29.250Z,81.13
2019-04-10T06:18:00.014Z,80.98
2019-04-10T06:20:31.392Z,80.72
2019-04-10T06:23:03.243Z,80.59
2019-04-10T06:25:36.684Z,80.68
2019-04-10T06:28:07.337Z,80.60
2019-04-10T06:30:38.170Z,79.86
2019-04-10T06:33:09.729Z,80.96
2019-04-10T06:35:40.480Z,79.89
2019-04-10T06:38:11.266Z,79.48
2019-04-10T06:40:42.482Z,80.39
2019-04-10T06:43:13.246Z,80.34
2019-04-10T06:45:44.446Z,80.31
2019-04-10T06:48:15.256Z,80.50
2019-04-10T06:50:46.133Z,80.51
2019-04-10T06:53:18.534Z,80.51
2019-04-10T06:55:49.478Z,79.88
2019-04-10T06:58:21.364Z,79.62
2019-04-10T07:00:53.837Z,79.71
2019-04-10T07:03:28.928Z,80.54
2019-04-10T07:06:06.344Z,79.61
2019-04-10T07:08:29.963Z,78.66
2019-04-10T07:11:07.799Z,79.51
2019-04-10T07:13:36.833Z,79.41
2019-04-10T07:16:06.284Z,78.55
2019-04-10T07:18:38.643Z,79.45
2019-04-10T07:21:10.593Z,79.30
2019-04-10T07:23:42.733Z,79.58
2019-04-10T07:26:18.490Z,79.66
2019-04-10T07:28:47.556Z,79.31
2019-04-10T07:31:19.367Z,80.40
2019-04-10T07:33:51.925Z,81.00
2019-04-10T07:36:23.021Z,81.73
2019-04-10T07:38:56.107Z,82.47
2019-04-10T07:41:26.540Z,83.24
2019-04-10T07:43:58.316Z,83.32
2019-04-10T07:46:31.069Z,83.14
2019-04-10T07:49:02.944Z,83.26
2019-04-10T07:51:34.075Z,82.27
2019-04-10T07:54:06.049Z,82.64
2019-04-10T07:56:37.510Z,82.76
2019-04-10T07:59:08.802Z,82.94
2019-04-10T08:01:40.676Z,83.45
2019-04-10T08:04:12.512Z,84.00
2019-04-10T08:06:44.434Z,84.00
2019-04-10T08:09:15.366Z,83.71
2019-04-10T08:11:46.876Z,83.87
2019-04-10T08:14:17.689Z,84.31
2019-04-10T08:16:49.738Z,84.58
2019-04-10T08:19:20.797Z,84.56
2019-04-10T08:21:52.705Z,84.35
2019-04-10T08:24:23.763Z,83.78
2019-04-10T08:26:54.888Z,84.04
2019-04-10T08:29:26.024Z,84.71
2019-04-10T08:31:56.829Z,85.72
2019-04-10T08:34:28.118Z,85.64
2019-04-10T08:36:59.686Z,85.29
2019-04-10T08:39:37.751Z,85.50
2019-04-10T08:42:03.179Z,85.33
2019-04-10T08:44:34.027Z,85.60
2019-04-10T08:47:04.742Z,85.25
2019-04-10T08:49:35.450Z,84.83
2019-04-10T08:52:06.512Z,84.11
2019-04-10T08:54:38.400Z,84.50
2019-04-10T08:57:09.622Z,83.86
2019-04-10T08:59:44.037Z,84.28
2019-04-10T09:02:15.911Z,84.81
2019-04-10T09:04:46.877Z,85.54
2019-04-10T09:07:17.651Z,85.28
2019-04-10T09:09:48.550Z,85.36
2019-04-10T09:12:19.827Z,85.49
2019-04-10T09:14:51.680Z,84.96
2019-04-10T09:17:24.987Z,84.92
2019-04-10T09:19:55.782Z,84.26
2019-04-10T09:22:26.786Z,84.31
2019-04-10T09:24:58.447Z,84.63
2019-04-10T09:27:29.127Z,84.77
2019-04-10T09:30:00.424Z,85.34
2019-04-10T09:32:32.614Z,84.94
2019-04-10T09:35:04.441Z,84.43
2019-04-10T09:37:35.282Z,84.40
2019-04-10T09:40:08.005Z,84.49
2019-04-10T09:42:39.607Z,83.83
2019-04-10T09:45:11.532Z,83.67
2019-04-10T09:47:43.767Z,83.96
2019-04-10T09:50:15.280Z,83.86
2019-04-10T09:52:50.432Z,82.23
2019-04-10T09:55:22.234Z,83.19
2019-04-10T09:57:58.324Z,82.80
2019-04-10T10:00:32.503Z,83.60
2019-04-10T10:03:03.552Z,82.93
2019-04-10T10:05:34.906Z,83.47
2019-04-10T10:08:07.419Z,82.59
2019-04-10T10:10:39.556Z,82.33
2019-04-10T10:13:10.773Z,82.52
2019-04-10T10:15:41.658Z,82.85
2019-04-10T10:18:12.998Z,83.52
2019-04-10T10:20:44.054Z,82.57
2019-04-10T10:23:15.811Z,83.24
2019-04-10T10:25:47.784Z,83.79
2019-04-10T10:28:18.804Z,84.16
2019-04-10T10:30:49.549Z,83.44
2019-04-10T10:33:21.556Z,82.91
2019-04-10T10:35:53.412Z,83.19
2019-04-10T10:38:25.165Z,83.52
2019-04-10T10:40:57.049Z,83.55
2019-04-10T10:43:28.798Z,83.70
2019-04-10T10:46:00.872Z,83.82
2019-04-10T10:48:31.780Z,84.00
2019-04-10T10:51:02.502Z,84.03
2019-04-10T10:53:34.544Z,84.29
2019-04-10T10:56:06.373Z,84.27
2019-04-10T10:58:38.171Z,85.50
2019-04-10T11:01:08.961Z,85.48
2019-04-10T11:03:40.509Z,85.78
2019-04-10T11:06:11.401Z,85.31
2019-04-10T11:08:42.236Z,85.07
2019-04-10T11:11:13.123Z,86.05
2019-04-10T11:13:43.893Z,86.26
2019-04-10T11:16:14.594Z,86.50
2019-04-10T11:18:46.860Z,86.49
2019-04-10T11:21:18.247Z,86.67
2019-04-10T11:23:49.507Z,86.98
2019-04-10T11:26:23.938Z,86.81
2019-04-10T11:28:53.075Z,86.87
2019-04-10T11:31:25.092Z,86.90
2019-04-10T11:33:56.890Z,86.62
2019-04-10T11:36:29.890Z,86.99
2019-04-10T11:39:12.014Z,86.58
2019-04-10T11:41:34.830Z,86.78
2019-04-10T11:44:08.128Z,87.32
2019-04-10T11:46:41.454Z,87.02
2019-04-10T11:49:13.957Z,86.23
2019-04-10T11:51:45.289Z,86.79
2019-04-10T11:54:18.025Z,86.83
2019-04-10T11:56:50.951Z,86.77
2019-04-10T12:04:29.554Z,86.94
2019-04-10T12:07:01.393Z,87.16
2019-04-10T12:10:49.415Z,87.19
2019-04-10T12:12:04.025Z,87.20
2019-04-10T12:14:35.431Z,87.13
2019-04-10T12:17:06.144Z,86.85
2019-04-10T12:19:36.924Z,86.90
2019-04-10T12:22:07.702Z,86.45
2019-04-10T12:24:38.457Z,86.79
2019-04-10T12:27:09.386Z,87.34
2019-04-10T12:29:40.515Z,87.60
2019-04-10T12:32:12.233Z,87.16
2019-04-10T12:34:44.462Z,86.69
2019-04-10T12:37:15.559Z,87.16
2019-04-10T12:39:47.481Z,86.90
2019-04-10T12:42:19.763Z,87.32
2019-04-10T12:44:51.402Z,87.01
2019-04-10T12:47:22.380Z,88.19
2019-04-10T12:49:54.013Z,87.96
2019-04-10T12:52:24.782Z,87.85
2019-04-10T12:54:55.649Z,88.17
2019-04-10T12:57:26.717Z,88.15
2019-04-10T13:00:01.492Z,87.82
2019-04-10T13:02:30.334Z,87.97
2019-04-10T13:05:01.161Z,87.65
2019-04-10T13:07:33.866Z,87.51
2019-04-10T13:10:05.005Z,87.54
2019-04-10T13:12:35.799Z,87.61
2019-04-10T13:15:08.566Z,88.15
2019-04-10T13:17:40.698Z,87.82
2019-04-10T13:20:14.178Z,87.61
2019-04-10T13:22:45.057Z,87.77
2019-04-10T13:25:16.358Z,87.56
2019-04-10T13:27:47.381Z,88.04
2019-04-10T13:30:18.751Z,88.02
2019-04-10T13:32:50.080Z,88.45
2019-04-10T13:35:21.937Z,87.98
2019-04-10T13:37:52.920Z,87.81
2019-04-10T13:40:23.671Z,88.42
2019-04-10T13:42:54.367Z,88.21
2019-04-10T13:45:25.133Z,88.39
2019-04-10T13:47:56.677Z,88.67
2019-04-10T13:50:27.526Z,88.25
2019-04-10T13:52:59.563Z,88.53
2019-04-10T13:55:30.589Z,88.23
2019-04-10T13:58:01.407Z,88.38
2019-04-10T14:00:39.910Z,88.43
2019-04-10T14:03:10.226Z,88.26
2019-04-10T14:05:41.318Z,88.02
2019-04-10T14:08:12.604Z,87.89
2019-04-10T14:10:44.511Z,87.86
2019-04-10T14:13:15.731Z,87.72
2019-04-10T14:15:48.438Z,87.45
2019-04-10T14:18:19.367Z,88.10
2019-04-10T14:20:51.330Z,87.55
2019-04-10T14:23:26.614Z,88.28
2019-04-10T14:26:20.312Z,87.97
2019-04-10T14:28:51.788Z,88.46
2019-04-10T14:31:26.650Z,88.76
2019-04-10T14:33:58.414Z,89.13
2019-04-10T14:36:29.819Z,89.08
2019-04-10T14:39:10.502Z,88.98
2019-04-10T14:41:35.994Z,88.84
2019-04-10T14:44:08.278Z,88.64
2019-04-10T14:46:40.048Z,88.37
2019-04-10T14:49:11.181Z,88.82
2019-04-10T14:51:42.208Z,88.25
2019-04-10T14:54:13.621Z,88.49
2019-04-10T14:56:44.504Z,88.58
2019-04-10T14:59:15.802Z,88.43
2019-04-10T15:01:46.698Z,88.81
2019-04-10T15:04:17.584Z,89.11
2019-04-10T15:06:48.487Z,89.29
2019-04-10T15:09:25.961Z,89.08
2019-04-10T15:11:55.337Z,88.51
2019-04-10T15:14:26.156Z,88.85
2019-04-10T15:17:02.318Z,88.60
2019-04-10T15:19:29.367Z,88.78
2019-04-10T15:22:01.165Z,88.81
2019-04-10T15:24:31.802Z,88.51
2019-04-10T15:27:02.783Z,88.47
2019-04-10T15:29:34.720Z,88.01
2019-04-10T15:32:06.411Z,88.29
2019-04-10T15:34:37.502Z,88.39
2019-04-10T15:37:08.882Z,87.79
2019-04-10T15:39:41.462Z,88.04
2019-04-10T15:42:12.365Z,87.83
2019-04-10T15:44:43.291Z,88.07
2019-04-10T15:47:19.613Z,88.22
2019-04-10T15:49:46.645Z,88.15
2019-04-10T15:52:17.794Z,87.89
2019-04-10T15:54:48.579Z,88.00
2019-04-10T15:57:19.531Z,88.30
2019-04-10T15:59:50.414Z,88.21
2019-04-10T16:02:21.714Z,88.13
2019-04-10T16:04:53.071Z,88.81
2019-04-10T16:07:24.473Z,88.57
2019-04-10T16:10:02.391Z,88.45
2019-04-10T16:12:33.553Z,88.69
2019-04-10T16:15:04.867Z,88.69
2019-04-10T16:17:44.068Z,88.61
2019-04-10T16:20:31.957Z,88.52
2019-04-10T16:23:15.004Z,88.67
2019-04-10T16:25:50.194Z,88.56
2019-04-10T16:28:21.069Z,88.60
2019-04-10T16:30:51.958Z,88.75
2019-04-10T16:33:23.247Z,88.59
2019-04-10T16:35:54.729Z,88.46
2019-04-10T16:38:26.718Z,88.62
2019-04-10T16:40:58.393Z,88.47
2019-04-10T16:43:30.623Z,88.55
2019-04-10T16:46:01.392Z,88.91
2019-04-10T16:48:33.399Z,88.90
2019-04-10T16:51:04.319Z,88.75
2019-04-10T16:53:36.312Z,88.91
2019-04-10T16:56:09.411Z,88.44
2019-04-10T16:58:41.598Z,88.37
2019-04-10T17:01:13.130Z,88.40
2019-04-10T17:03:44.246Z,88.66
2019-04-10T17:06:15.259Z,88.47
2019-04-10T17:08:46.125Z,88.72
2019-04-10T17:11:16.951Z,88.84
2019-04-10T17:13:48.880Z,89.23
2019-04-10T17:16:20.171Z,89.16
2019-04-10T17:18:51.709Z,89.25
2019-04-10T17:21:23.021Z,89.50
2019-04-10T17:23:53.898Z,89.42
2019-04-10T17:26:24.818Z,89.60
2019-04-10T17:28:56.637Z,89.58
2019-04-10T17:31:28.697Z,89.45
2019-04-10T17:34:00.607Z,89.61
2019-04-10T17:36:32.880Z,89.60
2019-04-10T17:39:05.244Z,89.69
2019-04-10T17:41:36.537Z,89.47
2019-04-10T17:44:07.738Z,89.71
2019-04-10T17:46:39.510Z,89.62
2019-04-10T17:49:11.944Z,89.67
2019-04-10T17:51:43.943Z,89.60
2019-04-10T17:54:16.217Z,89.65
2019-04-10T17:56:47.048Z,89.53
2019-04-10T17:59:18.353Z,89.14
2019-04-10T18:01:49.433Z,88.88
2019-04-10T18:04:20.340Z,88.78
2019-04-10T18:06:52.014Z,88.85
2019-04-10T18:09:24.911Z,88.72
2019-04-10T18:11:56.351Z,88.74
2019-04-10T18:14:27.323Z,88.64
2019-04-10T18:17:00.519Z,88.41
2019-04-10T18:19:32.327Z,88.37
2019-04-10T18:22:04.118Z,87.91
2019-04-10T18:24:35.975Z,87.61
2019-04-10T18:27:07.946Z,87.14
2019-04-10T18:29:39.357Z,86.82
2019-04-10T18:32:10.223Z,87.15
2019-04-10T18:34:41.103Z,86.77
2019-04-10T18:37:15.789Z,87.11
2019-04-10T18:39:44.683Z,86.63
2019-04-10T18:42:15.292Z,86.06
2019-04-10T18:44:46.940Z,85.85
2019-04-10T18:47:18.611Z,85.99
2019-04-10T18:49:49.748Z,85.77
2019-04-10T18:52:21.292Z,86.50
2019-04-10T18:54:52.163Z,85.94
2019-04-10T18:57:24.057Z,85.89
2019-04-10T19:00:30.181Z,85.57
2019-04-10T19:03:10.761Z,85.71
2019-04-10T19:05:45.659Z,85.69
2019-04-10T19:08:16.519Z,85.17
2019-04-10T19:10:48.388Z,84.99
2019-04-10T19:13:19.143Z,84.93
2019-04-10T19:15:49.924Z,84.80
2019-04-10T19:18:21.883Z,85.19
2019-04-10T19:20:53.288Z,85.22
2019-04-10T19:23:25.429Z,84.73
2019-04-10T19:25:56.814Z,85.35
2019-04-10T19:28:30.278Z,85.15
2019-04-10T19:31:14.635Z,84.89
2019-04-10T19:33:41.538Z,85.00
2019-04-10T19:36:12.620Z,85.68
2019-04-10T19:38:44.038Z,85.18
2019-04-10T19:41:25.214Z,85.15
2019-04-10T19:43:50.512Z,85.54
2019-04-10T19:46:21.638Z,85.84
2019-04-10T19:48:53.554Z,85.94
2019-04-10T19:51:24.544Z,85.88
2019-04-10T19:53:55.680Z,86.14
2019-04-10T19:56:26.747Z,86.13
2019-04-10T19:58:58.686Z,86.23
2019-04-10T20:01:31.308Z,86.03
2019-04-10T20:04:02.117Z,85.73
2019-04-10T20:06:32.835Z,86.45
2019-04-10T20:09:06.861Z,85.88
2019-04-10T20:11:43.403Z,85.99
2019-04-10T20:14:10.689Z,86.38
2019-04-10T20:16:41.624Z,86.21
2019-04-10T20:19:13.022Z,86.24
2019-04-10T20:21:44.095Z,85.83
2019-04-10T20:24:14.846Z,85.65
2019-04-10T20:26:45.735Z,85.62
2019-04-10T20:29:17.157Z,85.35
2019-04-10T20:31:49.825Z,85.82
2019-04-10T20:34:21.230Z,85.01
2019-04-10T20:36:53.301Z,85.45
2019-04-10T20:39:25.273Z,85.50
2019-04-10T20:41:58.344Z,85.94
2019-04-10T20:44:29.139Z,85.51
2019-04-10T20:47:00.386Z,85.66
2019-04-10T20:49:31.131Z,85.94
2019-04-10T20:52:02.151Z,85.93
2019-04-10T20:54:32.965Z,86.08
2019-04-10T20:57:04.946Z,86.10
2019-04-10T20:59:37.099Z,86.23
2019-04-10T21:02:08.021Z,86.33
2019-04-10T21:04:39.607Z,86.47
2019-04-10T21:07:12.563Z,86.53
2019-04-10T21:09:43.872Z,86.54
2019-04-10T21:12:18.088Z,86.62
2019-04-10T21:14:47.978Z,86.46
2019-04-10T21:17:18.988Z,86.30
2019-04-10T21:19:49.661Z,86.15
2019-04-10T21:22:20.467Z,86.34
2019-04-10T21:24:52.055Z,86.51
2019-04-10T21:27:22.946Z,86.50
2019-04-10T21:30:11.448Z,86.74
2019-04-10T21:32:56.927Z,86.86
2019-04-10T21:35:32.753Z,86.81
2019-04-10T21:38:04.799Z,86.78
2019-04-10T21:40:35.433Z,86.73
2019-04-10T21:43:06.311Z,86.71
2019-04-10T21:45:37.166Z,86.61
2019-04-10T21:48:08.546Z,86.82
2019-04-10T21:50:39.821Z,86.93
2019-04-10T21:53:10.476Z,87.06
2019-04-10T21:55:41.718Z,87.36
2019-04-10T21:58:13.070Z,87.53
2019-04-10T22:01:05.506Z,87.47
2019-04-10T22:03:37.873Z,87.60
2019-04-10T22:06:19.768Z,87.69
2019-04-10T22:09:10.443Z,87.65
2019-04-10T22:11:43.492Z,87.60
2019-04-10T22:14:15.085Z,87.47
2019-04-10T22:16:46.357Z,87.57
2019-04-10T22:19:17.067Z,87.64
2019-04-10T22:21:48.199Z,87.79
2019-04-10T22:24:18.941Z,87.77
2019-04-10T22:26:50.147Z,87.56
2019-04-10T22:29:21.761Z,87.48
2019-04-10T22:31:53.455Z,87.45
2019-04-10T22:34:24.161Z,87.17
2019-04-10T22:36:55.613Z,87.11
2019-04-10T22:39:27.431Z,87.13
2019-04-10T22:41:58.942Z,87.09
2019-04-10T22:44:37.522Z,87.13
2019-04-10T22:47:02.989Z,87.39
2019-04-10T22:49:34.869Z,87.18
2019-04-10T22:52:06.810Z,87.05
2019-04-10T22:54:38.839Z,86.90
2019-04-10T22:57:10.471Z,86.97
2019-04-10T22:59:42.266Z,87.11
2019-04-10T23:02:15.050Z,87.24
2019-04-10T23:04:47.106Z,87.34
2019-04-10T23:07:17.890Z,87.16
2019-04-10T23:09:48.686Z,87.21
2019-04-10T23:12:20.337Z,86.93
2019-04-10T23:14:51.240Z,86.40
2019-04-10T23:17:21.899Z,86.18
2019-04-10T23:19:54.251Z,86.37
2019-04-10T23:22:27.314Z,86.41
2019-04-10T23:24:58.202Z,85.67
2019-04-10T23:27:30.090Z,85.89
2019-04-10T23:30:00.996Z,85.77
2019-04-10T23:32:31.522Z,86.11
2019-04-10T23:35:03.210Z,85.95
2019-04-10T23:37:35.038Z,85.21
2019-04-10T23:40:06.845Z,84.72
2019-04-10T23:42:37.924Z,84.09
2019-04-10T23:45:09.700Z,85.30
2019-04-10T23:47:40.227Z,84.26
2019-04-10T23:50:12.153Z,83.49
2019-04-10T23:52:44.338Z,81.81
2019-04-10T23:55:15.529Z,80.79
2019-04-10T23:57:46.614Z,82.70
